createdAt,value
2023-04-02T00:00:14.996Z,100824.72
2023-04-02T00:02:55.329Z,100829.91
2023-04-02T00:05:46.363Z,100825.84
2023-04-02T00:08:22.490Z,100833.47
2023-04-02T00:10:51.063Z,100830.56
2023-04-02T00:13:25.707Z,100831.78
2023-04-02T00:15:56.630Z,100842.16
2023-04-02T00:18:24.144Z,100832.75
2023-04-02T00:20:55.028Z,100843.28
2023-04-02T00:23:23.170Z,100843.94
2023-04-02T00:25:49.893Z,100836.91
2023-04-02T00:28:19.302Z,100847.91
2023-04-02T00:30:49.059Z,100855.19
2023-04-02T00:33:18.403Z,100856.41
2023-04-02T00:35:45.917Z,100863.66
2023-04-02T00:38:21.301Z,100857.72
2023-04-02T00:40:50.132Z,100863.19
2023-04-02T00:43:16.982Z,100871.00
2023-04-02T00:45:46.925Z,100873.72
2023-04-02T00:48:23.673Z,100879.00
2023-04-02T00:50:53.322Z,100886.34
2023-04-02T00:53:26.694Z,100887.00
2023-04-02T00:55:57.372Z,100894.63
2023-04-02T00:58:27.484Z,100893.19
2023-04-02T01:00:54.841Z,100898.09
2023-04-02T01:03:30.942Z,100899.03
2023-04-02T01:06:02.340Z,100903.88
2023-04-02T01:08:42.322Z,100904.31
2023-04-02T01:11:24.354Z,100908.66
2023-04-02T01:14:00.574Z,100919.78
2023-04-02T01:16:38.307Z,100920.63
2023-04-02T01:19:22.034Z,100911.09
2023-04-02T01:21:56.550Z,100919.31
2023-04-02T01:24:30.136Z,100911.47
2023-04-02T01:27:00.579Z,100916.09
2023-04-02T01:29:31.467Z,100926.75
2023-04-02T01:32:01.868Z,100922.13
2023-04-02T01:34:29.810Z,100928.72
2023-04-02T01:37:20.655Z,100928.66
2023-04-02T01:40:00.152Z,100933.06
2023-04-02T01:42:35.877Z,100936.47
2023-04-02T01:45:07.967Z,100940.59
2023-04-02T01:47:34.955Z,100939.44
2023-04-02T01:50:05.055Z,100943.03
2023-04-02T01:52:39.343Z,100950.38
2023-04-02T01:55:07.921Z,100948.69
2023-04-02T01:57:34.956Z,100949.47
2023-04-02T02:00:04.335Z,100953.31
2023-04-02T02:02:31.227Z,100948.59
2023-04-02T02:04:58.395Z,100953.13
2023-04-02T02:07:25.187Z,100963.69
2023-04-02T02:09:52.129Z,100965.00
2023-04-02T02:12:18.977Z,100963.97
2023-04-02T02:14:47.854Z,100973.19
2023-04-02T02:17:19.239Z,100978.00
2023-04-02T02:19:48.018Z,100976.59
2023-04-02T02:22:24.913Z,100986.41
2023-04-02T02:24:52.050Z,100990.91
2023-04-02T02:27:45.409Z,100990.28
2023-04-02T02:30:17.408Z,100994.78
2023-04-02T02:32:53.684Z,100997.22
2023-04-02T02:35:25.498Z,101000.31
2023-04-02T02:37:57.581Z,101003.16
2023-04-02T02:40:29.996Z,101002.13
2023-04-02T02:43:00.239Z,101007.03
2023-04-02T02:45:33.298Z,101018.03
2023-04-02T02:48:03.954Z,101024.66
2023-04-02T02:50:33.614Z,101026.44
2023-04-02T02:53:05.147Z,101028.31
2023-04-02T02:55:35.217Z,101014.88
2023-04-02T02:58:07.538Z,101018.16
2023-04-02T03:00:36.136Z,101027.75
2023-04-02T03:03:09.412Z,101030.59
2023-04-02T03:05:37.755Z,101019.84
2023-04-02T03:08:11.510Z,101028.41
2023-04-02T03:10:44.008Z,101036.81
2023-04-02T03:13:20.575Z,101043.22
2023-04-02T03:15:56.688Z,101045.38
2023-04-02T03:18:34.521Z,101044.56
2023-04-02T03:21:07.056Z,101046.69
2023-04-02T03:23:39.575Z,101054.16
2023-04-02T03:26:11.224Z,101053.78
2023-04-02T03:28:43.886Z,101059.41
2023-04-02T03:31:16.383Z,101062.59
2023-04-02T03:33:48.214Z,101067.22
2023-04-02T03:36:22.776Z,101071.09
2023-04-02T03:38:54.399Z,101076.44
2023-04-02T03:41:36.823Z,101074.63
2023-04-02T03:44:11.486Z,101073.59
2023-04-02T03:46:41.557Z,101082.78
2023-04-02T03:49:13.564Z,101085.50
2023-04-02T03:51:48.654Z,101096.91
2023-04-02T03:54:16.581Z,101088.97
2023-04-02T03:56:45.642Z,101094.06
2023-04-02T03:59:20.876Z,101102.94
2023-04-02T04:01:55.228Z,101101.72
2023-04-02T04:04:27.397Z,101103.22
2023-04-02T04:06:57.143Z,101109.56
2023-04-02T04:09:29.141Z,101118.03
2023-04-02T04:12:08.697Z,101122.00
2023-04-02T04:14:42.341Z,101112.47
2023-04-02T04:17:17.015Z,101125.34
2023-04-02T04:19:48.413Z,101116.09
2023-04-02T04:22:17.715Z,101121.03
2023-04-02T04:24:45.311Z,101126.19
2023-04-02T04:27:23.620Z,101131.28
2023-04-02T04:29:57.912Z,101127.47
2023-04-02T04:32:29.382Z,101128.84
2023-04-02T04:35:14.908Z,101122.25
2023-04-02T04:37:45.545Z,101125.28
2023-04-02T04:40:19.651Z,101135.03
2023-04-02T04:42:50.652Z,101135.91
2023-04-02T04:45:34.410Z,101139.19
2023-04-02T04:48:07.722Z,101142.56
2023-04-02T04:50:40.916Z,101145.25
2023-04-02T04:53:13.778Z,101152.84
2023-04-02T04:55:43.501Z,101152.78
2023-04-02T04:58:18.852Z,101157.59
2023-04-02T05:00:55.706Z,101164.03
2023-04-02T05:03:30.298Z,101161.78
2023-04-02T05:06:08.276Z,101166.59
2023-04-02T05:08:39.333Z,101170.50
2023-04-02T05:11:11.491Z,101175.63
2023-04-02T05:13:44.392Z,101178.53
2023-04-02T05:16:16.928Z,101178.72
2023-04-02T05:18:47.334Z,101183.34
2023-04-02T05:21:23.073Z,101199.84
2023-04-02T05:23:56.288Z,101200.56
2023-04-02T05:26:29.757Z,101206.59
2023-04-02T05:29:02.612Z,101194.22
2023-04-02T05:31:37.755Z,101199.19
2023-04-02T05:34:04.544Z,101198.88
2023-04-02T05:36:33.134Z,101201.41
2023-04-02T05:39:00.499Z,101200.06
2023-04-02T05:41:29.238Z,101211.31
2023-04-02T05:44:03.812Z,101211.91
2023-04-02T05:46:36.077Z,101209.94
2023-04-02T05:49:07.207Z,101216.16
2023-04-02T05:51:41.362Z,101216.44
2023-04-02T05:54:18.396Z,101221.03
2023-04-02T05:56:49.150Z,101225.22
2023-04-02T05:59:19.890Z,101230.25
2023-04-02T06:01:51.771Z,101226.03
2023-04-02T06:04:25.649Z,101235.34
2023-04-02T06:07:03.406Z,101242.72
2023-04-02T06:09:37.243Z,101251.63
2023-04-02T06:12:16.514Z,101256.91
2023-04-02T06:14:43.352Z,101268.31
2023-04-02T06:17:14.280Z,101256.59
2023-04-02T06:19:41.397Z,101266.97
2023-04-02T06:22:19.959Z,101273.44
2023-04-02T06:24:50.165Z,101267.31
2023-04-02T06:27:19.806Z,101263.25
2023-04-02T06:29:50.303Z,101276.31
2023-04-02T06:32:17.030Z,101285.03
2023-04-02T06:34:43.822Z,101298.81
2023-04-02T06:37:19.611Z,101306.03
2023-04-02T06:39:46.362Z,101313.16
2023-04-02T06:42:18.006Z,101318.25
2023-04-02T06:44:44.939Z,101322.31
2023-04-02T06:47:22.958Z,101334.34
2023-04-02T06:49:57.797Z,101334.38
2023-04-02T06:52:29.334Z,101331.00
2023-04-02T06:54:56.064Z,101334.41
2023-04-02T06:57:23.029Z,101338.34
2023-04-02T06:59:49.987Z,101338.97
2023-04-02T07:02:26.823Z,101343.50
2023-04-02T07:04:58.705Z,101346.44
2023-04-02T07:07:26.873Z,101346.09
2023-04-02T07:09:53.487Z,101359.19
2023-04-02T07:12:24.047Z,101358.50
2023-04-02T07:14:50.840Z,101354.91
2023-04-02T07:17:18.229Z,101354.25
2023-04-02T07:19:45.116Z,101358.66
2023-04-02T07:22:11.950Z,101359.44
2023-04-02T07:24:40.068Z,101359.72
2023-04-02T07:27:06.747Z,101366.69
2023-04-02T07:29:33.347Z,101368.81
2023-04-02T07:31:59.936Z,101372.22
2023-04-02T07:34:26.692Z,101382.66
2023-04-02T07:36:53.375Z,101384.09
2023-04-02T07:39:20.022Z,101391.06
2023-04-02T07:41:56.181Z,101398.03
2023-04-02T07:44:22.849Z,101394.94
2023-04-02T07:46:49.746Z,101407.41
2023-04-02T07:49:17.376Z,101409.63
2023-04-02T07:51:43.992Z,101412.19
2023-04-02T07:54:10.721Z,101414.75
2023-04-02T07:56:37.644Z,101415.59
2023-04-02T07:59:05.842Z,101418.00
2023-04-02T08:01:32.492Z,101422.75
2023-04-02T08:03:59.190Z,101426.84
2023-04-02T08:06:25.997Z,101434.72
2023-04-02T08:08:52.709Z,101433.50
2023-04-02T08:11:19.466Z,101447.84
2023-04-02T08:13:47.894Z,101449.28
2023-04-02T08:16:16.064Z,101448.59
2023-04-02T08:18:42.817Z,101458.16
2023-04-02T08:21:10.691Z,101461.41
2023-04-02T08:23:37.816Z,101457.44
2023-04-02T08:26:05.473Z,101461.22
2023-04-02T08:28:32.178Z,101466.69
2023-04-02T08:30:59.007Z,101451.88
2023-04-02T08:33:27.158Z,101460.53
2023-04-02T08:35:53.903Z,101456.75
2023-04-02T08:38:22.180Z,101461.59
2023-04-02T08:40:51.190Z,101464.69
2023-04-02T08:43:50.159Z,101467.06
2023-04-02T08:46:23.884Z,101477.69
2023-04-02T08:48:56.450Z,101484.25
2023-04-02T08:51:25.952Z,101488.56
2023-04-02T08:53:54.774Z,101499.66
2023-04-02T08:56:29.071Z,101498.09
2023-04-02T08:58:59.383Z,101501.03
2023-04-02T09:01:36.054Z,101499.31
2023-04-02T09:04:13.461Z,101507.47
2023-04-02T09:06:40.831Z,101506.41
2023-04-02T09:09:08.808Z,101510.81
2023-04-02T09:11:39.734Z,101512.97
2023-04-02T09:14:15.904Z,101513.78
2023-04-02T09:16:46.712Z,101519.31
2023-04-02T09:19:23.682Z,101524.50
2023-04-02T09:22:05.131Z,101523.31
2023-04-02T09:24:32.071Z,101521.16
2023-04-02T09:26:58.909Z,101523.31
2023-04-02T09:29:38.054Z,101536.41
2023-04-02T09:32:18.435Z,101544.28
2023-04-02T09:34:46.588Z,101541.88
2023-04-02T09:37:17.684Z,101553.88
2023-04-02T09:39:44.730Z,101558.19
2023-04-02T09:42:30.839Z,101553.59
2023-04-02T09:45:13.463Z,101558.81
2023-04-02T09:47:42.285Z,101570.91
2023-04-02T09:50:32.857Z,101567.78
2023-04-02T09:53:26.335Z,101566.44
2023-04-02T09:56:08.646Z,101574.78
2023-04-02T09:58:35.508Z,101568.78
2023-04-02T10:01:02.413Z,101571.66
2023-04-02T10:03:31.629Z,101578.75
2023-04-02T10:06:09.270Z,101582.72
2023-04-02T10:08:37.455Z,101584.66
2023-04-02T10:11:08.910Z,101590.00
2023-04-02T10:13:52.198Z,101596.69
2023-04-02T10:16:27.127Z,101594.00
2023-04-02T10:18:57.788Z,101601.31
2023-04-02T10:21:28.896Z,101604.63
2023-04-02T10:23:55.886Z,101600.97
2023-04-02T10:26:36.939Z,101598.25
2023-04-02T10:29:19.710Z,101612.66
2023-04-02T10:31:59.204Z,101615.84
2023-04-02T10:34:35.252Z,101613.03
2023-04-02T10:37:18.956Z,101624.97
2023-04-02T10:39:50.502Z,101640.03
2023-04-02T10:42:26.159Z,101638.78
2023-04-02T10:44:59.780Z,101643.78
2023-04-02T10:47:38.134Z,101647.44
2023-04-02T10:50:22.301Z,101652.28
2023-04-02T10:52:58.050Z,101650.53
2023-04-02T10:55:28.240Z,101658.69
2023-04-02T10:58:00.132Z,101659.09
2023-04-02T11:00:34.916Z,101660.78
2023-04-02T11:03:06.425Z,101657.47
2023-04-02T11:05:40.613Z,101664.91
2023-04-02T11:08:18.301Z,101675.25
2023-04-02T11:10:49.044Z,101674.25
2023-04-02T11:13:23.679Z,101675.34
2023-04-02T11:15:50.759Z,101672.41
2023-04-02T11:18:24.235Z,101678.81
2023-04-02T11:21:06.548Z,101676.16
2023-04-02T11:23:38.398Z,101680.94
2023-04-02T11:26:34.363Z,101696.31
2023-04-02T11:29:06.504Z,101686.78
2023-04-02T11:31:33.908Z,101687.63
2023-04-02T11:34:00.848Z,101684.34
2023-04-02T11:37:01.027Z,101683.06
2023-04-02T11:40:01.364Z,101695.97
2023-04-02T11:42:30.868Z,101696.13
2023-04-02T11:45:02.108Z,101700.50
2023-04-02T11:47:29.704Z,101697.09
2023-04-02T11:50:02.117Z,101697.94
2023-04-02T11:52:36.414Z,101704.72
2023-04-02T11:55:22.111Z,101703.84
2023-04-02T11:58:08.416Z,101701.63
2023-04-02T12:01:16.402Z,101710.22
2023-04-02T12:04:01.443Z,101713.31
2023-04-02T12:06:37.599Z,101718.47
2023-04-02T12:09:19.359Z,101709.31
2023-04-02T12:11:49.160Z,101701.16
2023-04-02T12:14:41.490Z,101701.97
2023-04-02T12:17:18.399Z,101705.38
2023-04-02T12:19:53.089Z,101705.16
2023-04-02T12:22:23.051Z,101714.00
2023-04-02T12:24:52.710Z,101713.16
2023-04-02T12:27:24.470Z,101707.44
2023-04-02T12:29:51.226Z,101709.19
2023-04-02T12:32:28.517Z,101714.19
2023-04-02T12:34:57.806Z,101703.50
2023-04-02T12:37:27.436Z,101713.16
2023-04-02T12:39:56.996Z,101722.97
2023-04-02T12:42:33.237Z,101724.84
2023-04-02T12:45:00.537Z,101735.41
2023-04-02T12:47:28.697Z,101746.06
2023-04-02T12:49:57.058Z,101733.00
2023-04-02T12:52:26.250Z,101727.69
2023-04-02T12:54:54.633Z,101722.13
2023-04-02T12:57:40.270Z,101719.63
2023-04-02T13:00:30.159Z,101716.84
2023-04-02T13:03:02.003Z,101708.25
2023-04-02T13:05:34.922Z,101717.31
2023-04-02T13:08:01.727Z,101719.41
2023-04-02T13:10:28.571Z,101710.38
2023-04-02T13:12:58.498Z,101708.88
2023-04-02T13:15:28.757Z,101717.28
2023-04-02T13:18:14.012Z,101712.69
2023-04-02T13:20:41.912Z,101709.94
2023-04-02T13:23:30.987Z,101704.06
2023-04-02T13:25:59.640Z,101700.53
2023-04-02T13:28:28.989Z,101696.38
2023-04-02T13:30:55.992Z,101699.63
2023-04-02T13:33:22.708Z,101696.88
2023-04-02T13:35:49.535Z,101693.22
2023-04-02T13:38:16.227Z,101691.88
2023-04-02T13:40:43.049Z,101694.94
2023-04-02T13:43:16.870Z,101690.00
2023-04-02T13:45:48.669Z,101694.06
2023-04-02T13:48:15.798Z,101693.94
2023-04-02T13:50:42.785Z,101687.63
2023-04-02T13:53:20.988Z,101694.41
2023-04-02T13:55:48.076Z,101694.53
2023-04-02T13:58:14.826Z,101694.50
2023-04-02T14:00:41.523Z,101698.19
2023-04-02T14:03:13.021Z,101699.59
2023-04-02T14:05:48.053Z,101696.81
2023-04-02T14:08:23.089Z,101695.59
2023-04-02T14:11:16.827Z,101702.16
2023-04-02T14:14:04.035Z,101696.13
2023-04-02T14:16:50.236Z,101700.69
2023-04-02T14:19:41.629Z,101695.13
2023-04-02T14:22:21.375Z,101690.84
2023-04-02T14:25:00.171Z,101686.84
2023-04-02T14:27:40.222Z,101687.03
2023-04-02T14:30:17.062Z,101677.44
2023-04-02T14:32:53.272Z,101672.53
2023-04-02T14:35:25.837Z,101673.69
2023-04-02T14:38:03.849Z,101670.91
2023-04-02T14:40:37.884Z,101672.44
2023-04-02T14:43:11.600Z,101668.88
2023-04-02T14:45:56.904Z,101666.94
2023-04-02T14:48:37.045Z,101662.50
2023-04-02T14:51:11.726Z,101662.50
2023-04-02T14:53:50.484Z,101666.53
2023-04-02T14:56:19.800Z,101674.16
2023-04-02T14:58:51.526Z,101679.47
2023-04-02T15:01:21.698Z,101677.38
2023-04-02T15:03:55.627Z,101666.13
2023-04-02T15:06:29.963Z,101664.34
2023-04-02T15:09:09.483Z,101673.50
2023-04-02T15:11:41.058Z,101674.19
2023-04-02T15:14:16.502Z,101672.28
2023-04-02T15:16:43.657Z,101664.25
2023-04-02T15:19:13.280Z,101668.00
2023-04-02T15:22:23.328Z,101671.84
2023-04-02T15:25:02.701Z,101660.59
2023-04-02T15:27:50.200Z,101668.22
2023-04-02T15:30:22.501Z,101663.94
2023-04-02T15:32:49.793Z,101663.28
2023-04-02T15:35:26.436Z,101669.81
2023-04-02T15:38:01.415Z,101670.53
2023-04-02T15:40:51.235Z,101666.94
2023-04-02T15:43:23.330Z,101665.13
2023-04-02T15:46:06.166Z,101663.66
2023-04-02T15:49:08.186Z,101671.66
2023-04-02T15:51:56.262Z,101685.94
2023-04-02T15:54:38.493Z,101675.53
2023-04-02T15:57:19.386Z,101679.94
2023-04-02T16:00:11.042Z,101687.38
2023-04-02T16:02:51.557Z,101691.34
2023-04-02T16:05:27.064Z,101693.56
2023-04-02T16:08:09.382Z,101692.22
2023-04-02T16:10:42.391Z,101686.94
2023-04-02T16:13:17.874Z,101691.91
2023-04-02T16:15:49.597Z,101697.50
2023-04-02T16:18:28.562Z,101698.88
2023-04-02T16:20:57.037Z,101698.56
2023-04-02T16:23:31.647Z,101704.69
2023-04-02T16:26:07.081Z,101711.66
2023-04-02T16:28:40.030Z,101703.91
2023-04-02T16:31:13.730Z,101705.97
2023-04-02T16:33:54.032Z,101708.50
2023-04-02T16:36:35.294Z,101710.44
2023-04-02T16:39:10.069Z,101716.69
2023-04-02T16:41:51.022Z,101714.41
2023-04-02T16:44:29.910Z,101719.16
2023-04-02T16:47:04.771Z,101722.53
2023-04-02T16:49:39.576Z,101724.94
2023-04-02T16:52:25.319Z,101723.56
2023-04-02T16:55:11.060Z,101726.03
2023-04-02T16:57:49.409Z,101729.84
2023-04-02T17:00:23.721Z,101726.09
2023-04-02T17:03:05.238Z,101722.66
2023-04-02T17:05:34.157Z,101738.22
2023-04-02T17:08:16.187Z,101740.53
2023-04-02T17:10:49.731Z,101737.28
2023-04-02T17:13:26.240Z,101738.31
2023-04-02T17:16:02.657Z,101742.16
2023-04-02T17:18:30.067Z,101740.72
2023-04-02T17:21:02.118Z,101749.13
2023-04-02T17:23:31.989Z,101752.47
2023-04-02T17:26:05.721Z,101749.69
2023-04-02T17:28:35.591Z,101744.84
2023-04-02T17:31:06.573Z,101756.25
2023-04-02T17:33:33.297Z,101754.25
2023-04-02T17:36:24.286Z,101760.69
2023-04-02T17:38:58.429Z,101764.75
2023-04-02T17:41:34.317Z,101764.56
2023-04-02T17:44:17.884Z,101763.63
2023-04-02T17:46:49.091Z,101762.97
2023-04-02T17:49:22.984Z,101763.59
2023-04-02T17:51:55.765Z,101759.56
2023-04-02T17:54:36.142Z,101758.28
2023-04-02T17:57:19.522Z,101766.75
2023-04-02T17:59:59.690Z,101769.56
2023-04-02T18:02:41.605Z,101765.97
2023-04-02T18:05:22.612Z,101771.31
2023-04-02T18:07:58.676Z,101776.44
2023-04-02T18:10:34.027Z,101773.31
2023-04-02T18:13:11.298Z,101776.00
2023-04-02T18:15:48.608Z,101771.59
2023-04-02T18:18:33.039Z,101775.84
2023-04-02T18:21:09.430Z,101776.03
2023-04-02T18:23:47.337Z,101791.50
2023-04-02T18:26:22.762Z,101786.63
2023-04-02T18:28:58.445Z,101782.22
2023-04-02T18:31:37.631Z,101786.88
2023-04-02T18:34:33.472Z,101787.72
2023-04-02T18:37:08.676Z,101788.59
2023-04-02T18:39:44.828Z,101789.84
2023-04-02T18:42:23.166Z,101787.31
2023-04-02T18:44:58.175Z,101786.09
2023-04-02T18:47:35.101Z,101789.19
2023-04-02T18:50:13.896Z,101789.38
2023-04-02T18:52:41.522Z,101799.97
2023-04-02T18:55:15.690Z,101798.75
2023-04-02T18:57:45.116Z,101802.84
2023-04-02T19:00:28.440Z,101803.06
2023-04-02T19:03:03.300Z,101809.00
2023-04-02T19:05:39.312Z,101808.81
2023-04-02T19:08:12.844Z,101805.88
2023-04-02T19:10:43.434Z,101812.03
2023-04-02T19:13:14.821Z,101821.44
2023-04-02T19:15:55.164Z,101813.41
2023-04-02T19:18:33.074Z,101810.63
2023-04-02T19:21:10.404Z,101823.59
2023-04-02T19:23:50.751Z,101821.53
2023-04-02T19:26:22.152Z,101825.28
2023-04-02T19:28:58.769Z,101818.78
2023-04-02T19:31:42.334Z,101816.03
2023-04-02T19:34:20.772Z,101824.38
2023-04-02T19:36:51.178Z,101827.16
2023-04-02T19:39:40.580Z,101820.72
2023-04-02T19:42:17.580Z,101825.75
2023-04-02T19:44:48.433Z,101827.69
2023-04-02T19:47:17.633Z,101829.84
2023-04-02T19:49:45.947Z,101829.63
2023-04-02T19:52:12.883Z,101831.09
2023-04-02T19:54:39.596Z,101830.47
2023-04-02T19:57:06.400Z,101838.28
2023-04-02T19:59:33.122Z,101835.38
2023-04-02T20:01:59.815Z,101833.28
2023-04-02T20:04:26.518Z,101828.66
2023-04-02T20:06:54.556Z,101826.56
2023-04-02T20:09:21.221Z,101831.63
2023-04-02T20:11:47.869Z,101830.34
2023-04-02T20:14:14.552Z,101830.28
2023-04-02T20:16:42.222Z,101832.09
2023-04-02T20:19:09.869Z,101836.56
2023-04-02T20:21:37.381Z,101832.91
2023-04-02T20:24:06.821Z,101839.13
2023-04-02T20:26:34.544Z,101841.50
2023-04-02T20:29:01.680Z,101840.03
2023-04-02T20:31:28.399Z,101835.25
2023-04-02T20:33:55.881Z,101833.72
2023-04-02T20:36:23.078Z,101835.06
2023-04-02T20:38:49.688Z,101842.34
2023-04-02T20:41:18.138Z,101835.56
2023-04-02T20:43:44.854Z,101840.47
2023-04-02T20:46:12.559Z,101837.59
2023-04-02T20:48:39.696Z,101845.63
2023-04-02T20:51:08.624Z,101838.31
2023-04-02T20:53:37.187Z,101842.66
2023-04-02T20:56:04.963Z,101848.84
2023-04-02T20:58:33.921Z,101843.75
2023-04-02T21:01:09.288Z,101848.97
2023-04-02T21:03:36.094Z,101844.63
2023-04-02T21:06:02.917Z,101852.38
2023-04-02T21:08:29.576Z,101859.41
2023-04-02T21:11:02.120Z,101854.34
2023-04-02T21:13:29.740Z,101858.88
2023-04-02T21:15:57.960Z,101868.41
2023-04-02T21:18:24.761Z,101859.13
2023-04-02T21:20:57.678Z,101870.28
2023-04-02T21:23:24.361Z,101862.69
2023-04-02T21:25:56.067Z,101869.50
2023-04-02T21:28:22.708Z,101873.41
2023-04-02T21:30:49.428Z,101881.75
2023-04-02T21:33:17.697Z,101878.81
2023-04-02T21:35:44.378Z,101883.66
2023-04-02T21:38:11.101Z,101886.56
2023-04-02T21:40:37.728Z,101885.88
2023-04-02T21:43:04.374Z,101882.19
2023-04-02T21:45:31.088Z,101889.94
2023-04-02T21:47:57.742Z,101884.94
2023-04-02T21:50:25.856Z,101887.38
2023-04-02T21:52:52.525Z,101879.22
2023-04-02T21:55:19.176Z,101883.94
2023-04-02T21:57:45.824Z,101888.63
2023-04-02T22:00:13.890Z,101881.47
2023-04-02T22:02:40.628Z,101893.38
2023-04-02T22:05:07.886Z,101892.94
2023-04-02T22:07:35.883Z,101896.22
2023-04-02T22:10:02.638Z,101891.78
2023-04-02T22:12:29.271Z,101895.69
2023-04-02T22:14:55.969Z,101884.78
2023-04-02T22:17:22.629Z,101888.78
2023-04-02T22:19:49.232Z,101889.50
2023-04-02T22:22:15.916Z,101885.66
2023-04-02T22:24:43.972Z,101885.50
2023-04-02T22:27:10.578Z,101889.09
2023-04-02T22:29:37.222Z,101891.66
2023-04-02T22:32:03.859Z,101889.94
2023-04-02T22:34:30.641Z,101888.78
2023-04-02T22:36:57.378Z,101889.50
2023-04-02T22:39:24.045Z,101889.50
2023-04-02T22:41:53.783Z,101895.31
2023-04-02T22:44:20.391Z,101899.38
2023-04-02T22:46:47.076Z,101893.94
2023-04-02T22:49:13.815Z,101891.88
2023-04-02T22:51:40.469Z,101895.03
2023-04-02T22:54:08.442Z,101891.91
2023-04-02T22:56:35.143Z,101903.34
2023-04-02T22:59:04.176Z,101893.63
2023-04-02T23:01:32.980Z,101895.63
2023-04-02T23:03:59.935Z,101891.34
2023-04-02T23:06:27.451Z,101899.06
2023-04-02T23:08:54.191Z,101900.34
2023-04-02T23:11:23.242Z,101890.75
2023-04-02T23:13:52.347Z,101892.69
2023-04-02T23:16:23.315Z,101887.25
2023-04-02T23:18:50.198Z,101880.91
2023-04-02T23:21:18.098Z,101891.31
2023-04-02T23:23:45.580Z,101891.81
2023-04-02T23:26:14.945Z,101889.38
2023-04-02T23:28:41.992Z,101890.69
2023-04-02T23:31:12.352Z,101888.72
2023-04-02T23:33:40.472Z,101889.56
2023-04-02T23:36:08.009Z,101886.16
2023-04-02T23:38:34.705Z,101882.09
2023-04-02T23:41:01.465Z,101890.91
2023-04-02T23:43:28.190Z,101888.16
2023-04-02T23:45:54.922Z,101896.31
2023-04-02T23:48:21.692Z,101899.44
2023-04-02T23:50:49.833Z,101895.22
2023-04-02T23:53:16.606Z,101885.28
2023-04-02T23:55:43.288Z,101890.97
2023-04-02T23:58:10.166Z,101888.41
